sensor_id;sensor_type;location;lat;lon;timestamp;P1;durP1;ratioP1;P2;durP2;ratioP2
4754;SDS011;2391;47.212;7.542;2022-09-12T00:03:36;0.93;;;0.90;;
4754;SDS011;2391;47.212;7.542;2022-09-12T00:06:07;2.67;;;0.83;;
4754;SDS011;2391;47.212;7.542;2022-09-12T00:08:34;0.80;;;0.80;;
4754;SDS011;2391;47.212;7.542;2022-09-12T00:11:03;1.20;;;1.10;;
4754;SDS011;2391;47.212;7.542;2022-09-12T00:13:32;4.83;;;0.87;;
4754;SDS011;2391;47.212;7.542;2022-09-12T00:15:59;1.10;;;0.93;;
4754;SDS011;2391;47.212;7.542;2022-09-12T00:18:25;1.30;;;1.20;;
4754;SDS011;2391;47.212;7.542;2022-09-12T00:20:51;2.33;;;1.20;;
4754;SDS011;2391;47.212;7.542;2022-09-12T00:23:17;1.33;;;1.00;;
4754;SDS011;2391;47.212;7.542;2022-09-12T00:25:43;3.73;;;1.07;;
4754;SDS011;2391;47.212;7.542;2022-09-12T00:28:14;1.47;;;1.03;;
4754;SDS011;2391;47.212;7.542;2022-09-12T00:30:46;4.90;;;1.13;;
4754;SDS011;2391;47.212;7.542;2022-09-12T00:33:09;1.53;;;0.90;;
4754;SDS011;2391;47.212;7.542;2022-09-12T00:38:11;0.90;;;0.90;;
4754;SDS011;2391;47.212;7.542;2022-09-12T00:40:38;1.63;;;0.97;;
4754;SDS011;2391;47.212;7.542;2022-09-12T00:43:04;3.90;;;1.30;;
4754;SDS011;2391;47.212;7.542;2022-09-12T00:45:30;3.33;;;1.00;;
4754;SDS011;2391;47.212;7.542;2022-09-12T00:47:57;1.03;;;0.93;;
4754;SDS011;2391;47.212;7.542;2022-09-12T00:50:26;5.80;;;1.00;;
4754;SDS011;2391;47.212;7.542;2022-09-12T00:53:02;2.50;;;1.00;;
4754;SDS011;2391;47.212;7.542;2022-09-12T00:55:34;3.03;;;0.90;;
4754;SDS011;2391;47.212;7.542;2022-09-12T00:58:08;2.67;;;0.90;;
4754;SDS011;2391;47.212;7.542;2022-09-12T01:00:36;2.13;;;0.90;;
4754;SDS011;2391;47.212;7.542;2022-09-12T01:03:04;3.07;;;0.90;;
4754;SDS011;2391;47.212;7.542;2022-09-12T01:05:33;1.17;;;1.07;;
4754;SDS011;2391;47.212;7.542;2022-09-12T01:08:03;2.00;;;0.90;;
4754;SDS011;2391;47.212;7.542;2022-09-12T01:10:30;1.77;;;1.67;;
4754;SDS011;2391;47.212;7.542;2022-09-12T01:13:00;4.20;;;1.80;;
4754;SDS011;2391;47.212;7.542;2022-09-12T01:15:27;2.53;;;2.33;;
4754;SDS011;2391;47.212;7.542;2022-09-12T01:18:15;1.60;;;1.50;;
4754;SDS011;2391;47.212;7.542;2022-09-12T01:26:03;2.30;;;1.30;;
4754;SDS011;2391;47.212;7.542;2022-09-12T01:34:36;1.50;;;1.00;;
4754;SDS011;2391;47.212;7.542;2022-09-12T01:37:16;1.33;;;1.20;;
4754;SDS011;2391;47.212;7.542;2022-09-12T01:45:29;0.90;;;0.90;;
4754;SDS011;2391;47.212;7.542;2022-09-12T01:48:20;1.30;;;1.00;;
4754;SDS011;2391;47.212;7.542;2022-09-12T01:53:32;1.00;;;1.00;;
4754;SDS011;2391;47.212;7.542;2022-09-12T01:56:04;1.30;;;1.20;;
4754;SDS011;2391;47.212;7.542;2022-09-12T01:58:41;1.93;;;1.33;;
4754;SDS011;2391;47.212;7.542;2022-09-12T02:01:11;1.13;;;1.00;;
4754;SDS011;2391;47.212;7.542;2022-09-12T02:06:21;1.57;;;1.30;;
4754;SDS011;2391;47.212;7.542;2022-09-12T02:08:52;1.67;;;1.37;;
4754;SDS011;2391;47.212;7.542;2022-09-12T02:11:21;6.17;;;1.30;;
4754;SDS011;2391;47.212;7.542;2022-09-12T02:13:48;2.47;;;1.27;;
4754;SDS011;2391;47.212;7.542;2022-09-12T02:16:17;2.23;;;1.10;;
4754;SDS011;2391;47.212;7.542;2022-09-12T02:18:48;1.13;;;1.00;;
4754;SDS011;2391;47.212;7.542;2022-09-12T02:21:18;1.13;;;0.90;;
4754;SDS011;2391;47.212;7.542;2022-09-12T02:23:47;0.90;;;0.90;;
4754;SDS011;2391;47.212;7.542;2022-09-12T02:26:18;1.00;;;0.90;;
4754;SDS011;2391;47.212;7.542;2022-09-12T02:28:45;1.50;;;1.00;;
4754;SDS011;2391;47.212;7.542;2022-09-12T02:34:02;2.10;;;0.80;;
4754;SDS011;2391;47.212;7.542;2022-09-12T02:39:19;1.23;;;1.13;;
4754;SDS011;2391;47.212;7.542;2022-09-12T02:41:46;0.90;;;0.90;;
4754;SDS011;2391;47.212;7.542;2022-09-12T02:44:14;5.53;;;0.90;;
4754;SDS011;2391;47.212;7.542;2022-09-12T02:46:41;2.90;;;1.30;;
4754;SDS011;2391;47.212;7.542;2022-09-12T02:49:09;0.93;;;0.93;;
4754;SDS011;2391;47.212;7.542;2022-09-12T02:51:35;2.90;;;0.97;;
4754;SDS011;2391;47.212;7.542;2022-09-12T02:54:02;7.43;;;1.00;;
4754;SDS011;2391;47.212;7.542;2022-09-12T02:56:30;2.77;;;0.90;;
4754;SDS011;2391;47.212;7.542;2022-09-12T02:58:58;1.80;;;0.90;;
4754;SDS011;2391;47.212;7.542;2022-09-12T03:01:40;1.10;;;1.00;;
4754;SDS011;2391;47.212;7.542;2022-09-12T03:04:09;0.93;;;0.93;;
4754;SDS011;2391;47.212;7.542;2022-09-12T03:06:47;1.00;;;1.00;;
4754;SDS011;2391;47.212;7.542;2022-09-12T03:09:17;7.80;;;1.60;;
4754;SDS011;2391;47.212;7.542;2022-09-12T03:11:49;1.13;;;1.10;;
4754;SDS011;2391;47.212;7.542;2022-09-12T03:14:25;6.60;;;1.10;;
4754;SDS011;2391;47.212;7.542;2022-09-12T03:17:01;2.73;;;1.07;;
4754;SDS011;2391;47.212;7.542;2022-09-12T03:22:34;2.77;;;1.10;;
4754;SDS011;2391;47.212;7.542;2022-09-12T03:25:08;1.00;;;1.00;;
4754;SDS011;2391;47.212;7.542;2022-09-12T03:27:35;7.10;;;1.47;;
4754;SDS011;2391;47.212;7.542;2022-09-12T03:30:04;1.20;;;1.10;;
4754;SDS011;2391;47.212;7.542;2022-09-12T03:35:13;1.63;;;1.00;;
4754;SDS011;2391;47.212;7.542;2022-09-12T03:37:40;1.20;;;1.10;;
4754;SDS011;2391;47.212;7.542;2022-09-12T03:40:06;2.67;;;1.40;;
4754;SDS011;2391;47.212;7.542;2022-09-12T03:42:34;1.60;;;1.10;;
4754;SDS011;2391;47.212;7.542;2022-09-12T03:45:00;1.67;;;1.57;;
4754;SDS011;2391;47.212;7.542;2022-09-12T03:47:26;3.30;;;1.17;;
4754;SDS011;2391;47.212;7.542;2022-09-12T03:49:52;3.87;;;1.20;;
4754;SDS011;2391;47.212;7.542;2022-09-12T03:52:18;2.40;;;1.10;;
4754;SDS011;2391;47.212;7.542;2022-09-12T03:54:44;1.63;;;0.97;;
4754;SDS011;2391;47.212;7.542;2022-09-12T03:57:10;2.30;;;1.10;;
4754;SDS011;2391;47.212;7.542;2022-09-12T03:59:36;2.73;;;1.10;;
4754;SDS011;2391;47.212;7.542;2022-09-12T04:02:02;2.30;;;1.40;;
4754;SDS011;2391;47.212;7.542;2022-09-12T04:04:29;3.40;;;1.00;;
4754;SDS011;2391;47.212;7.542;2022-09-12T04:06:55;1.20;;;1.10;;
4754;SDS011;2391;47.212;7.542;2022-09-12T04:09:20;5.40;;;1.10;;
4754;SDS011;2391;47.212;7.542;2022-09-12T04:11:46;1.23;;;1.10;;
4754;SDS011;2391;47.212;7.542;2022-09-12T04:14:12;1.60;;;1.17;;
4754;SDS011;2391;47.212;7.542;2022-09-12T04:16:38;2.93;;;1.23;;
4754;SDS011;2391;47.212;7.542;2022-09-12T04:19:04;1.90;;;1.10;;
4754;SDS011;2391;47.212;7.542;2022-09-12T04:21:30;1.10;;;1.10;;
4754;SDS011;2391;47.212;7.542;2022-09-12T04:23:56;2.40;;;1.10;;
4754;SDS011;2391;47.212;7.542;2022-09-12T04:26:22;1.10;;;1.10;;
4754;SDS011;2391;47.212;7.542;2022-09-12T04:28:51;4.93;;;1.50;;
4754;SDS011;2391;47.212;7.542;2022-09-12T04:31:18;1.20;;;1.10;;
4754;SDS011;2391;47.212;7.542;2022-09-12T04:33:45;1.03;;;1.00;;
4754;SDS011;2391;47.212;7.542;2022-09-12T04:36:12;2.20;;;1.10;;
4754;SDS011;2391;47.212;7.542;2022-09-12T04:38:41;2.27;;;1.20;;
4754;SDS011;2391;47.212;7.542;2022-09-12T04:43:50;3.40;;;1.33;;
4754;SDS011;2391;47.212;7.542;2022-09-12T04:46:19;1.93;;;1.50;;
4754;SDS011;2391;47.212;7.542;2022-09-12T04:48:45;3.03;;;1.20;;
4754;SDS011;2391;47.212;7.542;2022-09-12T04:53:53;2.03;;;1.57;;
4754;SDS011;2391;47.212;7.542;2022-09-12T04:56:17;1.57;;;1.47;;
4754;SDS011;2391;47.212;7.542;2022-09-12T04:58:45;3.93;;;1.40;;
4754;SDS011;2391;47.212;7.542;2022-09-12T05:01:15;1.27;;;1.17;;
4754;SDS011;2391;47.212;7.542;2022-09-12T05:03:43;1.80;;;1.50;;
4754;SDS011;2391;47.212;7.542;2022-09-12T05:06:12;1.57;;;1.47;;
4754;SDS011;2391;47.212;7.542;2022-09-12T05:08:40;1.40;;;1.30;;
4754;SDS011;2391;47.212;7.542;2022-09-12T05:11:07;3.83;;;1.43;;
4754;SDS011;2391;47.212;7.542;2022-09-12T05:13:38;1.30;;;1.20;;
4754;SDS011;2391;47.212;7.542;2022-09-12T05:16:05;3.33;;;1.63;;
4754;SDS011;2391;47.212;7.542;2022-09-12T05:18:33;1.30;;;1.20;;
4754;SDS011;2391;47.212;7.542;2022-09-12T05:21:02;2.60;;;1.37;;
4754;SDS011;2391;47.212;7.542;2022-09-12T05:23:30;5.03;;;1.27;;
4754;SDS011;2391;47.212;7.542;2022-09-12T05:25:57;3.93;;;1.40;;
4754;SDS011;2391;47.212;7.542;2022-09-12T05:28:24;3.77;;;1.40;;
4754;SDS011;2391;47.212;7.542;2022-09-12T05:31:04;1.20;;;1.20;;
4754;SDS011;2391;47.212;7.542;2022-09-12T05:33:29;2.30;;;1.40;;
4754;SDS011;2391;47.212;7.542;2022-09-12T05:35:55;1.83;;;1.70;;
4754;SDS011;2391;47.212;7.542;2022-09-12T05:38:21;3.20;;;1.40;;
4754;SDS011;2391;47.212;7.542;2022-09-12T05:40:49;1.50;;;1.40;;
4754;SDS011;2391;47.212;7.542;2022-09-12T05:43:16;1.30;;;1.20;;
4754;SDS011;2391;47.212;7.542;2022-09-12T05:45:42;1.73;;;1.30;;
4754;SDS011;2391;47.212;7.542;2022-09-12T05:48:08;1.40;;;1.30;;
4754;SDS011;2391;47.212;7.542;2022-09-12T05:50:34;2.90;;;1.70;;
4754;SDS011;2391;47.212;7.542;2022-09-12T05:53:00;1.93;;;1.37;;
4754;SDS011;2391;47.212;7.542;2022-09-12T05:55:26;1.83;;;1.37;;
4754;SDS011;2391;47.212;7.542;2022-09-12T05:57:52;4.10;;;1.60;;
4754;SDS011;2391;47.212;7.542;2022-09-12T06:00:18;1.70;;;1.60;;
4754;SDS011;2391;47.212;7.542;2022-09-12T06:02:50;2.30;;;1.73;;
4754;SDS011;2391;47.212;7.542;2022-09-12T06:05:16;2.00;;;1.73;;
4754;SDS011;2391;47.212;7.542;2022-09-12T06:07:44;2.57;;;2.37;;
4754;SDS011;2391;47.212;7.542;2022-09-12T06:10:11;3.23;;;2.47;;
4754;SDS011;2391;47.212;7.542;2022-09-12T06:12:37;2.23;;;2.13;;
4754;SDS011;2391;47.212;7.542;2022-09-12T06:15:04;3.23;;;2.33;;
4754;SDS011;2391;47.212;7.542;2022-09-12T06:17:31;2.60;;;2.40;;
4754;SDS011;2391;47.212;7.542;2022-09-12T06:19:56;4.13;;;2.10;;
4754;SDS011;2391;47.212;7.542;2022-09-12T06:22:23;2.43;;;1.83;;
4754;SDS011;2391;47.212;7.542;2022-09-12T06:24:48;1.60;;;1.50;;
4754;SDS011;2391;47.212;7.542;2022-09-12T06:27:14;1.87;;;1.77;;
4754;SDS011;2391;47.212;7.542;2022-09-12T06:29:40;2.70;;;1.97;;
4754;SDS011;2391;47.212;7.542;2022-09-12T06:32:06;4.73;;;1.70;;
4754;SDS011;2391;47.212;7.542;2022-09-12T06:34:32;9.13;;;2.10;;
4754;SDS011;2391;47.212;7.542;2022-09-12T06:37:01;2.60;;;2.10;;
4754;SDS011;2391;47.212;7.542;2022-09-12T06:39:28;3.10;;;1.90;;
4754;SDS011;2391;47.212;7.542;2022-09-12T06:41:56;2.63;;;1.93;;
4754;SDS011;2391;47.212;7.542;2022-09-12T06:44:21;3.20;;;2.07;;
4754;SDS011;2391;47.212;7.542;2022-09-12T06:46:48;1.97;;;1.87;;
4754;SDS011;2391;47.212;7.542;2022-09-12T06:49:14;9.80;;;1.90;;
4754;SDS011;2391;47.212;7.542;2022-09-12T06:51:42;8.80;;;1.40;;
4754;SDS011;2391;47.212;7.542;2022-09-12T06:54:08;2.53;;;2.20;;
4754;SDS011;2391;47.212;7.542;2022-09-12T06:56:36;2.80;;;1.60;;
4754;SDS011;2391;47.212;7.542;2022-09-12T06:59:02;1.73;;;1.63;;
4754;SDS011;2391;47.212;7.542;2022-09-12T07:01:28;1.63;;;1.50;;
4754;SDS011;2391;47.212;7.542;2022-09-12T07:03:56;2.10;;;2.00;;
4754;SDS011;2391;47.212;7.542;2022-09-12T07:06:25;5.70;;;1.50;;
4754;SDS011;2391;47.212;7.542;2022-09-12T07:08:55;1.60;;;1.50;;
4754;SDS011;2391;47.212;7.542;2022-09-12T07:11:23;8.90;;;1.80;;
4754;SDS011;2391;47.212;7.542;2022-09-12T07:13:52;3.17;;;1.50;;
4754;SDS011;2391;47.212;7.542;2022-09-12T07:16:19;5.90;;;1.60;;
4754;SDS011;2391;47.212;7.542;2022-09-12T07:18:53;2.43;;;1.70;;
4754;SDS011;2391;47.212;7.542;2022-09-12T07:21:17;2.57;;;1.70;;
4754;SDS011;2391;47.212;7.542;2022-09-12T07:23:43;9.43;;;2.00;;
4754;SDS011;2391;47.212;7.542;2022-09-12T07:26:10;5.63;;;2.90;;
4754;SDS011;2391;47.212;7.542;2022-09-12T07:28:37;2.40;;;2.20;;
4754;SDS011;2391;47.212;7.542;2022-09-12T07:31:08;2.60;;;2.40;;
4754;SDS011;2391;47.212;7.542;2022-09-12T07:33:37;3.20;;;2.37;;
4754;SDS011;2391;47.212;7.542;2022-09-12T07:36:05;2.53;;;2.33;;
4754;SDS011;2391;47.212;7.542;2022-09-12T07:38:33;3.87;;;2.30;;
4754;SDS011;2391;47.212;7.542;2022-09-12T07:40:59;4.10;;;2.40;;
4754;SDS011;2391;47.212;7.542;2022-09-12T07:43:26;5.33;;;2.60;;
4754;SDS011;2391;47.212;7.542;2022-09-12T07:45:55;6.83;;;2.73;;
4754;SDS011;2391;47.212;7.542;2022-09-12T07:48:22;6.13;;;2.60;;
4754;SDS011;2391;47.212;7.542;2022-09-12T07:50:58;7.17;;;2.30;;
4754;SDS011;2391;47.212;7.542;2022-09-12T07:53:25;5.63;;;2.43;;
4754;SDS011;2391;47.212;7.542;2022-09-12T07:55:53;3.30;;;2.60;;
4754;SDS011;2391;47.212;7.542;2022-09-12T07:58:21;7.43;;;2.70;;
4754;SDS011;2391;47.212;7.542;2022-09-12T08:00:48;4.30;;;2.90;;
4754;SDS011;2391;47.212;7.542;2022-09-12T08:03:13;4.90;;;2.70;;
4754;SDS011;2391;47.212;7.542;2022-09-12T08:05:39;5.73;;;2.97;;
4754;SDS011;2391;47.212;7.542;2022-09-12T08:08:05;2.67;;;2.47;;
4754;SDS011;2391;47.212;7.542;2022-09-12T08:10:31;2.90;;;2.70;;
4754;SDS011;2391;47.212;7.542;2022-09-12T08:12:57;3.60;;;2.50;;
4754;SDS011;2391;47.212;7.542;2022-09-12T08:15:26;6.17;;;2.30;;
4754;SDS011;2391;47.212;7.542;2022-09-12T08:17:52;3.63;;;2.40;;
4754;SDS011;2391;47.212;7.542;2022-09-12T08:20:17;3.93;;;2.40;;
4754;SDS011;2391;47.212;7.542;2022-09-12T08:22:43;2.33;;;2.13;;
4754;SDS011;2391;47.212;7.542;2022-09-12T08:25:09;2.63;;;2.43;;
4754;SDS011;2391;47.212;7.542;2022-09-12T08:27:35;10.00;;;2.40;;
4754;SDS011;2391;47.212;7.542;2022-09-12T08:30:02;3.30;;;2.40;;
4754;SDS011;2391;47.212;7.542;2022-09-12T08:32:29;1.83;;;1.67;;
4754;SDS011;2391;47.212;7.542;2022-09-12T08:34:55;2.00;;;1.90;;
4754;SDS011;2391;47.212;7.542;2022-09-12T08:37:21;1.97;;;1.87;;
4754;SDS011;2391;47.212;7.542;2022-09-12T08:39:47;2.43;;;2.23;;
4754;SDS011;2391;47.212;7.542;2022-09-12T08:42:16;3.60;;;1.90;;
4754;SDS011;2391;47.212;7.542;2022-09-12T08:55:25;2.93;;;1.93;;
4754;SDS011;2391;47.212;7.542;2022-09-12T08:57:53;2.37;;;1.87;;
4754;SDS011;2391;47.212;7.542;2022-09-12T09:00:19;2.23;;;1.67;;
4754;SDS011;2391;47.212;7.542;2022-09-12T09:02:58;2.10;;;1.57;;
4754;SDS011;2391;47.212;7.542;2022-09-12T09:05:39;1.50;;;1.40;;
4754;SDS011;2391;47.212;7.542;2022-09-12T09:19:00;1.50;;;1.40;;
4754;SDS011;2391;47.212;7.542;2022-09-12T09:21:34;3.40;;;1.40;;
4754;SDS011;2391;47.212;7.542;2022-09-12T09:24:20;0.90;;;0.90;;
4754;SDS011;2391;47.212;7.542;2022-09-12T09:26:54;1.60;;;1.00;;
4754;SDS011;2391;47.212;7.542;2022-09-12T09:29:32;5.60;;;1.40;;
4754;SDS011;2391;47.212;7.542;2022-09-12T09:31:57;4.90;;;1.30;;
4754;SDS011;2391;47.212;7.542;2022-09-12T09:34:29;1.40;;;1.30;;
4754;SDS011;2391;47.212;7.542;2022-09-12T09:37:15;1.20;;;1.10;;
4754;SDS011;2391;47.212;7.542;2022-09-12T09:45:27;2.13;;;1.27;;
4754;SDS011;2391;47.212;7.542;2022-09-12T09:47:58;1.47;;;1.33;;
4754;SDS011;2391;47.212;7.542;2022-09-12T09:50:26;4.00;;;1.20;;
4754;SDS011;2391;47.212;7.542;2022-09-12T09:52:53;1.13;;;1.00;;
4754;SDS011;2391;47.212;7.542;2022-09-12T09:55:26;3.50;;;1.23;;
4754;SDS011;2391;47.212;7.542;2022-09-12T09:57:55;1.10;;;0.90;;
4754;SDS011;2391;47.212;7.542;2022-09-12T10:08:26;1.00;;;1.00;;
4754;SDS011;2391;47.212;7.542;2022-09-12T10:10:56;1.90;;;1.20;;
4754;SDS011;2391;47.212;7.542;2022-09-12T10:13:27;4.33;;;0.90;;
4754;SDS011;2391;47.212;7.542;2022-09-12T10:16:00;1.20;;;0.93;;
4754;SDS011;2391;47.212;7.542;2022-09-12T10:23:43;2.87;;;1.20;;
4754;SDS011;2391;47.212;7.542;2022-09-12T10:26:15;1.80;;;0.87;;
4754;SDS011;2391;47.212;7.542;2022-09-12T10:28:48;1.13;;;1.10;;
4754;SDS011;2391;47.212;7.542;2022-09-12T10:31:24;1.13;;;0.90;;
4754;SDS011;2391;47.212;7.542;2022-09-12T10:33:56;1.97;;;1.00;;
4754;SDS011;2391;47.212;7.542;2022-09-12T10:36:24;1.27;;;1.17;;
4754;SDS011;2391;47.212;7.542;2022-09-12T10:38:55;1.50;;;1.10;;
4754;SDS011;2391;47.212;7.542;2022-09-12T10:41:24;1.93;;;1.00;;
4754;SDS011;2391;47.212;7.542;2022-09-12T10:43:51;1.30;;;0.90;;
4754;SDS011;2391;47.212;7.542;2022-09-12T10:49:11;1.80;;;1.07;;
4754;SDS011;2391;47.212;7.542;2022-09-12T10:53:52;0.80;;;0.80;;
4754;SDS011;2391;47.212;7.542;2022-09-12T10:56:30;1.53;;;1.10;;
4754;SDS011;2391;47.212;7.542;2022-09-12T11:15:38;1.03;;;1.00;;
4754;SDS011;2391;47.212;7.542;2022-09-12T11:20:52;1.00;;;0.90;;
4754;SDS011;2391;47.212;7.542;2022-09-12T11:23:37;0.90;;;0.90;;
4754;SDS011;2391;47.212;7.542;2022-09-12T11:37:43;0.90;;;0.90;;
4754;SDS011;2391;47.212;7.542;2022-09-12T11:42:59;0.80;;;0.80;;
4754;SDS011;2391;47.212;7.542;2022-09-12T11:45:26;0.90;;;0.70;;
4754;SDS011;2391;47.212;7.542;2022-09-12T11:48:28;1.33;;;0.70;;
4754;SDS011;2391;47.212;7.542;2022-09-12T11:50:53;0.70;;;0.70;;
4754;SDS011;2391;47.212;7.542;2022-09-12T11:53:26;0.77;;;0.70;;
4754;SDS011;2391;47.212;7.542;2022-09-12T11:55:52;1.67;;;0.90;;
4754;SDS011;2391;47.212;7.542;2022-09-12T11:58:23;1.40;;;0.80;;
4754;SDS011;2391;47.212;7.542;2022-09-12T12:00:55;1.40;;;0.80;;
4754;SDS011;2391;47.212;7.542;2022-09-12T12:03:36;6.80;;;0.63;;
4754;SDS011;2391;47.212;7.542;2022-09-12T12:06:06;1.00;;;0.60;;
4754;SDS011;2391;47.212;7.542;2022-09-12T12:08:39;0.70;;;0.70;;
4754;SDS011;2391;47.212;7.542;2022-09-12T12:11:07;4.97;;;0.80;;
4754;SDS011;2391;47.212;7.542;2022-09-12T12:13:45;1.87;;;0.80;;
4754;SDS011;2391;47.212;7.542;2022-09-12T12:16:27;2.50;;;0.67;;
4754;SDS011;2391;47.212;7.542;2022-09-12T12:18:56;0.80;;;0.80;;
4754;SDS011;2391;47.212;7.542;2022-09-12T12:24:09;1.00;;;0.90;;
4754;SDS011;2391;47.212;7.542;2022-09-12T12:47:44;1.20;;;0.70;;
4754;SDS011;2391;47.212;7.542;2022-09-12T12:50:20;0.87;;;0.80;;
4754;SDS011;2391;47.212;7.542;2022-09-12T12:53:27;3.80;;;0.70;;
4754;SDS011;2391;47.212;7.542;2022-09-12T12:55:22;0.93;;;0.80;;
4754;SDS011;2391;47.212;7.542;2022-09-12T12:58:04;0.80;;;0.80;;
4754;SDS011;2391;47.212;7.542;2022-09-12T13:00:36;0.80;;;0.80;;
4754;SDS011;2391;47.212;7.542;2022-09-12T13:08:54;2.13;;;0.70;;
4754;SDS011;2391;47.212;7.542;2022-09-12T13:10:50;5.83;;;0.70;;
4754;SDS011;2391;47.212;7.542;2022-09-12T13:13:25;1.90;;;0.80;;
4754;SDS011;2391;47.212;7.542;2022-09-12T13:16:08;4.33;;;1.10;;
4754;SDS011;2391;47.212;7.542;2022-09-12T13:18:42;1.63;;;0.70;;
4754;SDS011;2391;47.212;7.542;2022-09-12T13:21:20;3.43;;;0.80;;
4754;SDS011;2391;47.212;7.542;2022-09-12T13:23:58;0.90;;;0.70;;
4754;SDS011;2391;47.212;7.542;2022-09-12T13:26:27;1.17;;;0.80;;
4754;SDS011;2391;47.212;7.542;2022-09-12T13:31:42;2.20;;;0.70;;
4754;SDS011;2391;47.212;7.542;2022-09-12T13:34:10;0.77;;;0.77;;
4754;SDS011;2391;47.212;7.542;2022-09-12T13:47:44;2.33;;;0.70;;
4754;SDS011;2391;47.212;7.542;2022-09-12T13:50:13;0.60;;;0.60;;
4754;SDS011;2391;47.212;7.542;2022-09-12T13:52:41;0.70;;;0.70;;
4754;SDS011;2391;47.212;7.542;2022-09-12T13:57:59;0.70;;;0.60;;
4754;SDS011;2391;47.212;7.542;2022-09-12T14:00:28;1.13;;;0.70;;
4754;SDS011;2391;47.212;7.542;2022-09-12T14:02:57;0.70;;;0.70;;
4754;SDS011;2391;47.212;7.542;2022-09-12T14:05:34;1.20;;;0.80;;
4754;SDS011;2391;47.212;7.542;2022-09-12T14:08:04;2.63;;;0.70;;
4754;SDS011;2391;47.212;7.542;2022-09-12T14:10:39;0.73;;;0.73;;
4754;SDS011;2391;47.212;7.542;2022-09-12T14:13:16;6.33;;;0.87;;
4754;SDS011;2391;47.212;7.542;2022-09-12T14:15:44;2.27;;;0.60;;
4754;SDS011;2391;47.212;7.542;2022-09-12T14:18:25;0.70;;;0.60;;
4754;SDS011;2391;47.212;7.542;2022-09-12T14:20:54;2.30;;;0.60;;
4754;SDS011;2391;47.212;7.542;2022-09-12T14:25:52;3.30;;;0.83;;
4754;SDS011;2391;47.212;7.542;2022-09-12T14:28:20;2.13;;;0.70;;
4754;SDS011;2391;47.212;7.542;2022-09-12T14:31:01;4.13;;;0.90;;
4754;SDS011;2391;47.212;7.542;2022-09-12T14:33:45;3.23;;;0.80;;
4754;SDS011;2391;47.212;7.542;2022-09-12T14:38:45;1.10;;;0.60;;
4754;SDS011;2391;47.212;7.542;2022-09-12T14:41:19;0.90;;;0.70;;
4754;SDS011;2391;47.212;7.542;2022-09-12T14:43:49;1.10;;;0.70;;
4754;SDS011;2391;47.212;7.542;2022-09-12T14:46:17;1.10;;;0.60;;
4754;SDS011;2391;47.212;7.542;2022-09-12T14:51:37;0.70;;;0.70;;
4754;SDS011;2391;47.212;7.542;2022-09-12T14:54:02;0.73;;;0.70;;
4754;SDS011;2391;47.212;7.542;2022-09-12T14:56:41;2.67;;;0.63;;
4754;SDS011;2391;47.212;7.542;2022-09-12T15:04:46;0.90;;;0.80;;
4754;SDS011;2391;47.212;7.542;2022-09-12T15:07:23;3.03;;;0.60;;
4754;SDS011;2391;47.212;7.542;2022-09-12T15:10:05;0.93;;;0.60;;
4754;SDS011;2391;47.212;7.542;2022-09-12T15:12:43;1.10;;;0.70;;
4754;SDS011;2391;47.212;7.542;2022-09-12T15:15:13;0.63;;;0.60;;
4754;SDS011;2391;47.212;7.542;2022-09-12T15:17:42;0.87;;;0.63;;
4754;SDS011;2391;47.212;7.542;2022-09-12T15:20:08;2.50;;;0.70;;
4754;SDS011;2391;47.212;7.542;2022-09-12T15:22:36;3.07;;;0.70;;
4754;SDS011;2391;47.212;7.542;2022-09-12T15:25:03;0.67;;;0.67;;
4754;SDS011;2391;47.212;7.542;2022-09-12T15:27:30;0.93;;;0.60;;
4754;SDS011;2391;47.212;7.542;2022-09-12T15:29:56;1.93;;;0.60;;
4754;SDS011;2391;47.212;7.542;2022-09-12T15:32:23;4.13;;;0.63;;
4754;SDS011;2391;47.212;7.542;2022-09-12T15:34:51;0.60;;;0.60;;
4754;SDS011;2391;47.212;7.542;2022-09-12T15:37:18;1.90;;;0.70;;
4754;SDS011;2391;47.212;7.542;2022-09-12T15:39:46;2.50;;;0.70;;
4754;SDS011;2391;47.212;7.542;2022-09-12T15:42:12;0.70;;;0.70;;
4754;SDS011;2391;47.212;7.542;2022-09-12T15:44:39;0.90;;;0.70;;
4754;SDS011;2391;47.212;7.542;2022-09-12T15:47:05;0.80;;;0.60;;
4754;SDS011;2391;47.212;7.542;2022-09-12T15:49:35;0.80;;;0.80;;
4754;SDS011;2391;47.212;7.542;2022-09-12T15:52:00;1.00;;;1.00;;
4754;SDS011;2391;47.212;7.542;2022-09-12T15:54:27;1.23;;;0.70;;
4754;SDS011;2391;47.212;7.542;2022-09-12T15:56:53;1.80;;;0.60;;
4754;SDS011;2391;47.212;7.542;2022-09-12T15:59:19;0.60;;;0.60;;
4754;SDS011;2391;47.212;7.542;2022-09-12T16:01:45;0.73;;;0.63;;
4754;SDS011;2391;47.212;7.542;2022-09-12T16:04:29;0.90;;;0.70;;
4754;SDS011;2391;47.212;7.542;2022-09-12T16:06:46;2.50;;;1.00;;
4754;SDS011;2391;47.212;7.542;2022-09-12T16:09:12;2.50;;;0.60;;
4754;SDS011;2391;47.212;7.542;2022-09-12T16:11:37;1.30;;;0.73;;
4754;SDS011;2391;47.212;7.542;2022-09-12T16:14:04;2.43;;;0.87;;
4754;SDS011;2391;47.212;7.542;2022-09-12T16:16:30;0.90;;;0.80;;
4754;SDS011;2391;47.212;7.542;2022-09-12T16:18:56;3.27;;;1.07;;
4754;SDS011;2391;47.212;7.542;2022-09-12T16:21:22;3.80;;;0.70;;
4754;SDS011;2391;47.212;7.542;2022-09-12T16:23:48;0.70;;;0.70;;
4754;SDS011;2391;47.212;7.542;2022-09-12T16:26:15;0.90;;;0.63;;
4754;SDS011;2391;47.212;7.542;2022-09-12T16:28:41;1.73;;;0.70;;
4754;SDS011;2391;47.212;7.542;2022-09-12T16:31:09;0.70;;;0.70;;
4754;SDS011;2391;47.212;7.542;2022-09-12T16:33:37;1.07;;;0.80;;
4754;SDS011;2391;47.212;7.542;2022-09-12T16:36:12;0.70;;;0.70;;
4754;SDS011;2391;47.212;7.542;2022-09-12T16:38:39;0.70;;;0.70;;
4754;SDS011;2391;47.212;7.542;2022-09-12T16:41:06;1.23;;;0.70;;
4754;SDS011;2391;47.212;7.542;2022-09-12T16:43:33;1.67;;;0.77;;
4754;SDS011;2391;47.212;7.542;2022-09-12T16:46:03;1.00;;;0.80;;
4754;SDS011;2391;47.212;7.542;2022-09-12T16:48:32;1.63;;;0.87;;
4754;SDS011;2391;47.212;7.542;2022-09-12T16:50:59;1.37;;;0.90;;
4754;SDS011;2391;47.212;7.542;2022-09-12T16:53:31;1.27;;;0.80;;
4754;SDS011;2391;47.212;7.542;2022-09-12T16:55:58;0.97;;;0.83;;
4754;SDS011;2391;47.212;7.542;2022-09-12T16:58:24;2.20;;;0.77;;
4754;SDS011;2391;47.212;7.542;2022-09-12T17:01:01;0.70;;;0.70;;
4754;SDS011;2391;47.212;7.542;2022-09-12T17:03:30;8.90;;;0.97;;
4754;SDS011;2391;47.212;7.542;2022-09-12T17:06:03;1.47;;;0.70;;
4754;SDS011;2391;47.212;7.542;2022-09-12T17:08:28;0.90;;;0.90;;
4754;SDS011;2391;47.212;7.542;2022-09-12T17:11:00;1.03;;;0.97;;
4754;SDS011;2391;47.212;7.542;2022-09-12T17:13:27;5.23;;;0.87;;
4754;SDS011;2391;47.212;7.542;2022-09-12T17:15:53;0.87;;;0.87;;
4754;SDS011;2391;47.212;7.542;2022-09-12T17:18:19;3.40;;;1.63;;
4754;SDS011;2391;47.212;7.542;2022-09-12T17:20:44;2.00;;;1.70;;
4754;SDS011;2391;47.212;7.542;2022-09-12T17:23:10;3.13;;;1.40;;
4754;SDS011;2391;47.212;7.542;2022-09-12T17:25:36;2.90;;;1.30;;
4754;SDS011;2391;47.212;7.542;2022-09-12T17:28:02;5.33;;;1.23;;
4754;SDS011;2391;47.212;7.542;2022-09-12T17:30:35;3.70;;;1.73;;
4754;SDS011;2391;47.212;7.542;2022-09-12T17:33:01;1.40;;;1.30;;
4754;SDS011;2391;47.212;7.542;2022-09-12T17:35:27;1.87;;;1.67;;
4754;SDS011;2391;47.212;7.542;2022-09-12T17:37:53;2.53;;;1.60;;
4754;SDS011;2391;47.212;7.542;2022-09-12T17:40:19;3.00;;;2.00;;
4754;SDS011;2391;47.212;7.542;2022-09-12T17:42:45;2.30;;;1.70;;
4754;SDS011;2391;47.212;7.542;2022-09-12T17:45:11;9.13;;;2.80;;
4754;SDS011;2391;47.212;7.542;2022-09-12T17:47:37;5.57;;;3.50;;
4754;SDS011;2391;47.212;7.542;2022-09-12T17:50:04;3.87;;;2.70;;
4754;SDS011;2391;47.212;7.542;2022-09-12T17:52:30;5.00;;;3.20;;
4754;SDS011;2391;47.212;7.542;2022-09-12T17:54:56;2.93;;;2.47;;
4754;SDS011;2391;47.212;7.542;2022-09-12T17:57:21;2.07;;;1.97;;
4754;SDS011;2391;47.212;7.542;2022-09-12T17:59:47;2.50;;;2.30;;
4754;SDS011;2391;47.212;7.542;2022-09-12T18:02:13;3.63;;;1.73;;
4754;SDS011;2391;47.212;7.542;2022-09-12T18:04:41;1.70;;;1.60;;
4754;SDS011;2391;47.212;7.542;2022-09-12T18:07:13;1.93;;;1.43;;
4754;SDS011;2391;47.212;7.542;2022-09-12T18:09:45;1.50;;;1.40;;
4754;SDS011;2391;47.212;7.542;2022-09-12T18:12:12;2.20;;;1.23;;
4754;SDS011;2391;47.212;7.542;2022-09-12T18:14:39;2.10;;;1.20;;
4754;SDS011;2391;47.212;7.542;2022-09-12T18:17:05;2.50;;;1.17;;
4754;SDS011;2391;47.212;7.542;2022-09-12T18:19:33;3.67;;;0.90;;
4754;SDS011;2391;47.212;7.542;2022-09-12T18:22:00;3.20;;;1.20;;
4754;SDS011;2391;47.212;7.542;2022-09-12T18:24:27;1.87;;;0.93;;
4754;SDS011;2391;47.212;7.542;2022-09-12T18:26:53;2.23;;;0.90;;
4754;SDS011;2391;47.212;7.542;2022-09-12T18:29:23;1.20;;;1.00;;